General Aviation Weather

Text Reports

Enter one or more of the following location identifiers separated by a space:

Zip Code, Four-Character ICAO or Three-Character IATA airport codes.

METAR - Aviation Routine Weather Report
KTAD - Trinidad, Colorado
Updated at 6:54 PM GMT on April 17, 2014 (12:54 PM MDT):
METAR KTAD 171854Z AUTO VRB04KT 10SM CLR 10/01 A3017 RMK AO2 SLP195 T01000011
TAF - Terminal Area Forecast
KTAD - Trinidad, Colorado
Updated at 6:54 PM GMT on April 17, 2014 (12:54 PM MDT):
No TAF is currently available for this location.
Decoded:
No decoded TAF is available.
PIREP - Pilot Weather Report
KTAD - Trinidad, Colorado
Updated at 6:54 PM GMT on April 17, 2014 (12:54 PM MDT):
No PIREP is currently available for this location.
AIRMET - Airmens Meteorological Information
KTAD - Trinidad, Colorado
Updated at 6:54 PM GMT on April 17, 2014 (12:54 PM MDT):
No AIRMET is currently available for this location.
SIGMET - Significant Meteorological Information
KTAD - Trinidad, Colorado
Updated at 6:54 PM GMT on April 17, 2014 (12:54 PM MDT):
No SIGMET is currently available for this location.
NOTAM - Notice to Airmen
KTAD - Trinidad, Colorado
Updated at 6:54 PM GMT on April 17, 2014 (12:54 PM MDT):
No NOTAM is currently available for this location.
Forecast Area
KTAD - Trinidad, Colorado
Updated at 6:54 PM GMT on April 17, 2014 (12:54 PM MDT):
No NOTAM is currently available for this location.
Aviation Weather Maps